Time,TemperatureF,DewpointF,PressureIn,WindDirection,WindDirectionDegrees,WindSpeedMPH,WindSpeedGustMPH,Humidity,HourlyPrecipIn,Conditions,Clouds,dailyrainin,SoftwareType,DateUTC
2013-07-09 00:22:00,71.0,69.0,29.95,WNW,302,0.0,0.0,94,0.22,,,0.35,,2013-07-09 04:22:00,
2013-07-09 00:42:00,72.0,71.0,29.96,NW,312,0.0,4.0,96,0.22,,,0.35,,2013-07-09 04:42:00,
2013-07-09 01:02:00,72.0,71.0,29.96,NW,311,0.0,0.0,96,0.00,,,0.35,,2013-07-09 05:02:00,
2013-07-09 01:11:00,72.0,71.0,29.96,NW,311,0.0,0.0,96,0.00,,,0.35,,2013-07-09 05:11:00,
2013-07-09 01:33:00,72.0,71.0,29.95,NW,311,0.0,4.0,97,0.00,,,0.35,,2013-07-09 05:33:00,
2013-07-09 01:42:00,72.0,71.0,29.95,NW,311,0.0,2.0,97,0.00,,,0.35,,2013-07-09 05:42:00,
2013-07-09 02:01:00,72.0,71.0,29.95,NW,309,0.0,6.0,98,0.00,,,0.35,,2013-07-09 06:01:00,
2013-07-09 02:11:00,72.0,71.0,29.95,NW,309,0.0,4.0,98,0.00,,,0.35,,2013-07-09 06:11:00,
2013-07-09 02:22:00,72.0,71.0,29.95,NW,308,2.0,6.0,98,0.00,,,0.35,,2013-07-09 06:22:00,
2013-07-09 02:43:00,72.0,71.0,29.95,WNW,291,1.0,6.0,98,0.00,,,0.35,,2013-07-09 06:43:00,
2013-07-09 02:53:00,72.0,71.0,29.96,WNW,284,1.0,6.0,98,0.00,,,0.35,,2013-07-09 06:53:00,
2013-07-09 03:02:00,72.0,71.0,29.96,WNW,284,0.0,1.0,98,0.00,,,0.35,,2013-07-09 07:02:00,
2013-07-09 03:12:00,72.0,71.0,29.96,WNW,284,0.0,0.0,98,0.00,,,0.35,,2013-07-09 07:12:00,
2013-07-09 03:22:00,72.0,71.0,29.96,WNW,284,0.0,0.0,98,0.00,,,0.35,,2013-07-09 07:22:00,
2013-07-09 03:34:00,72.0,71.0,29.96,WNW,284,0.0,0.0,98,0.00,,,0.35,,2013-07-09 07:34:00,
2013-07-09 03:43:00,71.0,70.0,29.96,WNW,284,0.0,0.0,98,0.00,,,0.35,,2013-07-09 07:43:00,
2013-07-09 03:53:00,71.0,70.0,29.96,WNW,284,0.0,0.0,98,0.00,,,0.35,,2013-07-09 07:53:00,
2013-07-09 04:01:00,71.0,70.0,29.96,WNW,284,0.0,0.0,98,0.00,,,0.35,,2013-07-09 08:01:00,
2013-07-09 04:22:00,70.0,69.0,29.96,WNW,284,0.0,0.0,98,0.00,,,0.35,,2013-07-09 08:22:00,
2013-07-09 04:33:00,70.0,69.0,29.96,WNW,284,0.0,0.0,98,0.00,,,0.35,,2013-07-09 08:33:00,
2013-07-09 04:43:00,70.0,69.0,29.96,WNW,284,0.0,0.0,98,0.00,,,0.35,,2013-07-09 08:43:00,
2013-07-09 04:52:00,70.0,70.0,29.96,WNW,284,0.0,0.0,99,0.00,,,0.35,,2013-07-09 08:52:00,
2013-07-09 05:02:00,70.0,70.0,29.96,WNW,284,0.0,0.0,99,0.00,,,0.35,,2013-07-09 09:02:00,
2013-07-09 05:12:00,69.0,69.0,29.96,WNW,284,0.0,0.0,99,0.00,,,0.35,,2013-07-09 09:12:00,
2013-07-09 05:42:00,69.0,69.0,29.96,WNW,284,0.0,0.0,99,0.00,,,0.35,,2013-07-09 09:42:00,
2013-07-09 06:33:00,68.0,68.0,29.96,WNW,284,0.0,0.0,99,0.01,,,0.36,,2013-07-09 10:33:00,
2013-07-09 06:42:00,68.0,68.0,29.96,WNW,284,0.0,0.0,99,0.01,,,0.36,,2013-07-09 10:42:00,
2013-07-09 06:52:00,68.0,68.0,29.97,WNW,284,0.0,0.0,99,0.01,,,0.36,,2013-07-09 10:52:00,
2013-07-09 07:53:00,70.0,70.0,29.96,WNW,284,0.0,0.0,100,0.00,,,0.36,,2013-07-09 11:53:00,
2013-07-09 08:33:00,73.0,73.0,29.96,WNW,284,0.0,0.0,100,0.00,,,0.36,,2013-07-09 12:33:00,
2013-07-09 08:52:00,73.0,73.0,29.96,WNW,284,0.0,0.0,100,0.00,,,0.36,,2013-07-09 12:52:00,
2013-07-09 09:43:00,74.0,74.0,29.97,WNW,284,0.0,1.0,100,0.00,,,0.36,,2013-07-09 13:43:00,
2013-07-09 09:53:00,74.0,74.0,29.97,WNW,284,0.0,2.0,99,0.00,,,0.36,,2013-07-09 13:53:00,
2013-07-09 10:34:00,76.0,75.0,29.97,WNW,284,0.0,4.0,97,0.00,,,0.36,,2013-07-09 14:34:00,
2013-07-09 10:43:00,77.0,75.0,29.96,WNW,284,0.0,4.0,94,0.00,,,0.36,,2013-07-09 14:43:00,
2013-07-09 10:53:00,78.0,76.0,29.96,WNW,284,1.0,2.0,94,0.00,,,0.36,,2013-07-09 14:53:00,
2013-07-09 12:43:00,85.0,77.0,29.94,NW,315,1.0,6.0,76,0.00,,,0.36,,2013-07-09 16:43:00,
2013-07-09 14:02:00,86.0,76.0,29.93,NW,309,6.0,9.0,73,0.00,,,0.31,,2013-07-09 18:02:00,
2013-07-09 14:32:00,86.0,76.0,29.91,SW,232,1.0,7.0,73,0.00,,,0.31,,2013-07-09 18:32:00,
2013-07-09 14:43:00,82.0,75.0,29.91,SW,232,7.0,22.0,80,0.05,,,0.29,,2013-07-09 18:43:00,
2013-07-09 15:43:00,73.0,72.0,29.93,NW,311,0.0,2.0,97,0.18,,,0.84,,2013-07-09 19:43:00,
2013-07-09 15:52:00,72.0,71.0,29.93,NW,311,0.0,4.0,97,0.28,,,0.83,,2013-07-09 19:52:00,
2013-07-09 16:01:00,73.0,72.0,29.93,NW,311,0.0,2.0,97,0.18,,,0.84,,2013-07-09 20:01:00,
2013-07-09 16:11:00,73.0,72.0,29.93,NW,311,0.0,2.0,97,0.18,,,0.84,,2013-07-09 20:11:00,
2013-07-09 16:22:00,73.0,72.0,29.93,NW,311,0.0,2.0,97,0.18,,,0.84,,2013-07-09 20:22:00,
2013-07-09 16:32:00,73.0,72.0,29.93,NW,311,0.0,2.0,97,0.18,,,0.84,,2013-07-09 20:32:00,
2013-07-09 21:53:00,77.0,74.0,29.86,SSW,195,0.0,4.0,90,-99.99,,,-99.99,,2013-07-10 01:53:00,
2013-07-09 23:43:00,77.0,75.0,29.86,North,360,0.0,6.0,93,0.00,,,-99.99,,2013-07-10 03:43:00,
2013-07-09 23:52:00,77.0,75.0,29.86,WNW,284,2.0,7.0,93,0.00,,,-99.99,,2013-07-10 03:52:00,